sensor_id;sensor_type;location;lat;lon;timestamp;P1;durP1;ratioP1;P2;durP2;ratioP2
78308;SDS011;67566;42.022;21.356;2023-02-16T00:01:32;83.10;;;42.05;;
78308;SDS011;67566;42.022;21.356;2023-02-16T00:03:59;90.10;;;44.85;;
78308;SDS011;67566;42.022;21.356;2023-02-16T00:06:26;87.60;;;43.47;;
78308;SDS011;67566;42.022;21.356;2023-02-16T00:08:53;82.35;;;44.28;;
78308;SDS011;67566;42.022;21.356;2023-02-16T00:14:26;58.70;;;30.23;;
78308;SDS011;67566;42.022;21.356;2023-02-16T00:16:52;64.75;;;34.67;;
78308;SDS011;67566;42.022;21.356;2023-02-16T00:19:20;70.43;;;36.55;;
78308;SDS011;67566;42.022;21.356;2023-02-16T00:21:49;66.68;;;35.83;;
78308;SDS011;67566;42.022;21.356;2023-02-16T00:24:16;64.50;;;32.80;;
78308;SDS011;67566;42.022;21.356;2023-02-16T00:26:42;65.00;;;34.80;;
78308;SDS011;67566;42.022;21.356;2023-02-16T00:29:10;66.60;;;34.80;;
78308;SDS011;67566;42.022;21.356;2023-02-16T00:31:41;59.25;;;30.90;;
78308;SDS011;67566;42.022;21.356;2023-02-16T00:34:23;76.35;;;39.72;;
78308;SDS011;67566;42.022;21.356;2023-02-16T00:36:51;70.15;;;37.30;;
78308;SDS011;67566;42.022;21.356;2023-02-16T00:39:16;72.80;;;36.83;;
78308;SDS011;67566;42.022;21.356;2023-02-16T00:41:42;65.05;;;35.50;;
78308;SDS011;67566;42.022;21.356;2023-02-16T00:44:34;69.68;;;35.30;;
78308;SDS011;67566;42.022;21.356;2023-02-16T00:47:17;66.18;;;34.05;;
78308;SDS011;67566;42.022;21.356;2023-02-16T00:49:46;91.07;;;47.00;;
78308;SDS011;67566;42.022;21.356;2023-02-16T00:52:26;77.57;;;41.20;;
78308;SDS011;67566;42.022;21.356;2023-02-16T00:54:54;68.10;;;34.35;;
78308;SDS011;67566;42.022;21.356;2023-02-16T00:57:21;72.55;;;37.55;;
78308;SDS011;67566;42.022;21.356;2023-02-16T00:59:47;73.68;;;36.38;;
78308;SDS011;67566;42.022;21.356;2023-02-16T01:02:16;75.00;;;37.40;;
78308;SDS011;67566;42.022;21.356;2023-02-16T01:04:41;61.88;;;30.60;;
78308;SDS011;67566;42.022;21.356;2023-02-16T01:07:11;66.15;;;34.35;;
78308;SDS011;67566;42.022;21.356;2023-02-16T01:09:55;60.20;;;29.15;;
78308;SDS011;67566;42.022;21.356;2023-02-16T01:12:39;60.97;;;30.90;;
78308;SDS011;67566;42.022;21.356;2023-02-16T01:15:05;60.72;;;29.00;;
78308;SDS011;67566;42.022;21.356;2023-02-16T01:17:37;62.83;;;31.33;;
78308;SDS011;67566;42.022;21.356;2023-02-16T01:20:02;56.28;;;29.83;;
78308;SDS011;67566;42.022;21.356;2023-02-16T01:22:28;50.65;;;27.00;;
78308;SDS011;67566;42.022;21.356;2023-02-16T01:24:57;49.75;;;25.08;;
78308;SDS011;67566;42.022;21.356;2023-02-16T01:27:23;58.95;;;29.88;;
78308;SDS011;67566;42.022;21.356;2023-02-16T01:29:48;53.75;;;28.40;;
78308;SDS011;67566;42.022;21.356;2023-02-16T01:32:14;60.95;;;29.67;;
78308;SDS011;67566;42.022;21.356;2023-02-16T01:34:39;75.38;;;34.30;;
78308;SDS011;67566;42.022;21.356;2023-02-16T01:37:05;71.25;;;34.85;;
78308;SDS011;67566;42.022;21.356;2023-02-16T01:39:30;82.15;;;39.85;;
78308;SDS011;67566;42.022;21.356;2023-02-16T01:49:42;65.47;;;33.72;;
78308;SDS011;67566;42.022;21.356;2023-02-16T02:00:13;82.40;;;39.80;;
78308;SDS011;67566;42.022;21.356;2023-02-16T02:03:02;71.90;;;37.05;;
78308;SDS011;67566;42.022;21.356;2023-02-16T02:05:47;50.95;;;27.98;;
78308;SDS011;67566;42.022;21.356;2023-02-16T02:16:02;58.45;;;29.52;;
78308;SDS011;67566;42.022;21.356;2023-02-16T02:18:29;62.17;;;32.80;;
78308;SDS011;67566;42.022;21.356;2023-02-16T02:38:20;60.00;;;30.48;;
78308;SDS011;67566;42.022;21.356;2023-02-16T02:44:11;61.88;;;32.53;;
78308;SDS011;67566;42.022;21.356;2023-02-16T02:46:41;72.90;;;35.80;;
78308;SDS011;67566;42.022;21.356;2023-02-16T02:49:07;70.20;;;34.35;;
78308;SDS011;67566;42.022;21.356;2023-02-16T02:51:32;58.45;;;29.65;;
78308;SDS011;67566;42.022;21.356;2023-02-16T02:54:05;77.88;;;38.03;;
78308;SDS011;67566;42.022;21.356;2023-02-16T02:56:56;54.75;;;27.77;;
78308;SDS011;67566;42.022;21.356;2023-02-16T02:59:47;76.22;;;34.28;;
78308;SDS011;67566;42.022;21.356;2023-02-16T03:02:46;68.80;;;33.38;;
78308;SDS011;67566;42.022;21.356;2023-02-16T03:05:15;75.82;;;34.60;;
78308;SDS011;67566;42.022;21.356;2023-02-16T03:07:44;71.70;;;35.40;;
78308;SDS011;67566;42.022;21.356;2023-02-16T03:13:38;60.13;;;28.83;;
78308;SDS011;67566;42.022;21.356;2023-02-16T03:16:15;63.83;;;30.05;;
78308;SDS011;67566;42.022;21.356;2023-02-16T03:18:46;61.78;;;31.20;;
78308;SDS011;67566;42.022;21.356;2023-02-16T03:21:30;64.22;;;30.88;;
78308;SDS011;67566;42.022;21.356;2023-02-16T03:24:19;53.75;;;26.75;;
78308;SDS011;67566;42.022;21.356;2023-02-16T03:27:07;59.53;;;26.98;;
78308;SDS011;67566;42.022;21.356;2023-02-16T03:29:51;48.80;;;24.40;;
78308;SDS011;67566;42.022;21.356;2023-02-16T03:32:20;43.35;;;23.10;;
78308;SDS011;67566;42.022;21.356;2023-02-16T03:34:45;54.08;;;24.90;;
78308;SDS011;67566;42.022;21.356;2023-02-16T03:37:11;57.75;;;27.30;;
78308;SDS011;67566;42.022;21.356;2023-02-16T03:39:37;48.55;;;23.40;;
78308;SDS011;67566;42.022;21.356;2023-02-16T03:42:21;56.97;;;27.02;;
78308;SDS011;67566;42.022;21.356;2023-02-16T03:44:47;45.25;;;23.17;;
78308;SDS011;67566;42.022;21.356;2023-02-16T03:47:13;42.92;;;22.98;;
78308;SDS011;67566;42.022;21.356;2023-02-16T03:49:39;50.67;;;25.83;;
78308;SDS011;67566;42.022;21.356;2023-02-16T03:52:04;54.83;;;28.25;;
78308;SDS011;67566;42.022;21.356;2023-02-16T03:54:30;59.65;;;28.48;;
78308;SDS011;67566;42.022;21.356;2023-02-16T03:56:55;40.33;;;20.67;;
78308;SDS011;67566;42.022;21.356;2023-02-16T03:59:21;59.50;;;27.63;;
78308;SDS011;67566;42.022;21.356;2023-02-16T04:01:46;55.58;;;28.33;;
78308;SDS011;67566;42.022;21.356;2023-02-16T04:04:12;53.03;;;26.33;;
78308;SDS011;67566;42.022;21.356;2023-02-16T04:06:38;51.40;;;26.98;;
78308;SDS011;67566;42.022;21.356;2023-02-16T04:09:04;57.40;;;26.83;;
78308;SDS011;67566;42.022;21.356;2023-02-16T04:11:29;57.15;;;28.80;;
78308;SDS011;67566;42.022;21.356;2023-02-16T04:14:13;47.92;;;24.67;;
78308;SDS011;67566;42.022;21.356;2023-02-16T04:16:39;39.63;;;21.77;;
78308;SDS011;67566;42.022;21.356;2023-02-16T04:19:04;52.67;;;25.77;;
78308;SDS011;67566;42.022;21.356;2023-02-16T04:21:31;53.75;;;25.08;;
78308;SDS011;67566;42.022;21.356;2023-02-16T04:23:56;53.08;;;26.92;;
78308;SDS011;67566;42.022;21.356;2023-02-16T04:26:22;53.22;;;25.88;;
78308;SDS011;67566;42.022;21.356;2023-02-16T04:28:47;61.58;;;30.95;;
78308;SDS011;67566;42.022;21.356;2023-02-16T04:31:13;69.65;;;32.33;;
78308;SDS011;67566;42.022;21.356;2023-02-16T04:33:38;63.42;;;31.60;;
78308;SDS011;67566;42.022;21.356;2023-02-16T04:36:04;70.57;;;32.90;;
78308;SDS011;67566;42.022;21.356;2023-02-16T04:38:30;46.13;;;22.33;;
78308;SDS011;67566;42.022;21.356;2023-02-16T04:40:55;56.28;;;27.05;;
78308;SDS011;67566;42.022;21.356;2023-02-16T04:43:21;52.60;;;27.85;;
78308;SDS011;67566;42.022;21.356;2023-02-16T04:45:46;62.78;;;30.13;;
78308;SDS011;67566;42.022;21.356;2023-02-16T04:48:11;57.03;;;28.67;;
78308;SDS011;67566;42.022;21.356;2023-02-16T04:50:37;52.30;;;24.05;;
78308;SDS011;67566;42.022;21.356;2023-02-16T04:53:02;61.50;;;28.55;;
78308;SDS011;67566;42.022;21.356;2023-02-16T04:55:28;56.65;;;27.65;;
78308;SDS011;67566;42.022;21.356;2023-02-16T04:57:55;57.20;;;29.20;;
78308;SDS011;67566;42.022;21.356;2023-02-16T05:00:21;59.90;;;30.40;;
78308;SDS011;67566;42.022;21.356;2023-02-16T05:02:46;60.38;;;30.08;;
78308;SDS011;67566;42.022;21.356;2023-02-16T05:05:12;86.68;;;49.60;;
78308;SDS011;67566;42.022;21.356;2023-02-16T05:07:37;62.60;;;32.20;;
78308;SDS011;67566;42.022;21.356;2023-02-16T05:10:03;64.72;;;31.70;;
78308;SDS011;67566;42.022;21.356;2023-02-16T05:12:30;62.92;;;33.50;;
78308;SDS011;67566;42.022;21.356;2023-02-16T05:15:14;48.85;;;26.30;;
78308;SDS011;67566;42.022;21.356;2023-02-16T05:17:39;41.22;;;22.83;;
78308;SDS011;67566;42.022;21.356;2023-02-16T05:20:05;53.17;;;25.63;;
78308;SDS011;67566;42.022;21.356;2023-02-16T05:22:31;51.50;;;27.83;;
78308;SDS011;67566;42.022;21.356;2023-02-16T05:24:58;47.53;;;23.77;;
78308;SDS011;67566;42.022;21.356;2023-02-16T05:27:25;63.78;;;31.50;;
78308;SDS011;67566;42.022;21.356;2023-02-16T05:29:51;65.95;;;33.22;;
78308;SDS011;67566;42.022;21.356;2023-02-16T05:32:17;81.40;;;36.88;;
78308;SDS011;67566;42.022;21.356;2023-02-16T05:34:43;112.15;;;51.58;;
78308;SDS011;67566;42.022;21.356;2023-02-16T05:37:09;111.13;;;51.78;;
78308;SDS011;67566;42.022;21.356;2023-02-16T05:39:36;93.03;;;44.40;;
78308;SDS011;67566;42.022;21.356;2023-02-16T05:42:01;96.05;;;46.30;;
78308;SDS011;67566;42.022;21.356;2023-02-16T05:44:27;80.25;;;39.72;;
78308;SDS011;67566;42.022;21.356;2023-02-16T05:46:52;71.45;;;34.00;;
78308;SDS011;67566;42.022;21.356;2023-02-16T05:49:18;72.80;;;33.10;;
78308;SDS011;67566;42.022;21.356;2023-02-16T05:51:44;64.95;;;32.67;;
78308;SDS011;67566;42.022;21.356;2023-02-16T05:54:10;72.13;;;36.22;;
78308;SDS011;67566;42.022;21.356;2023-02-16T05:56:41;77.22;;;36.85;;
78308;SDS011;67566;42.022;21.356;2023-02-16T05:59:11;91.75;;;42.28;;
78308;SDS011;67566;42.022;21.356;2023-02-16T06:01:37;84.75;;;43.95;;
78308;SDS011;67566;42.022;21.356;2023-02-16T06:04:05;83.20;;;41.15;;
78308;SDS011;67566;42.022;21.356;2023-02-16T06:06:32;76.63;;;38.80;;
78308;SDS011;67566;42.022;21.356;2023-02-16T06:08:58;102.50;;;48.60;;
78308;SDS011;67566;42.022;21.356;2023-02-16T06:11:23;88.57;;;43.40;;
78308;SDS011;67566;42.022;21.356;2023-02-16T06:14:05;95.07;;;45.92;;
78308;SDS011;67566;42.022;21.356;2023-02-16T06:16:32;68.85;;;35.22;;
78308;SDS011;67566;42.022;21.356;2023-02-16T06:18:58;68.50;;;36.50;;
78308;SDS011;67566;42.022;21.356;2023-02-16T06:21:24;66.43;;;35.70;;
78308;SDS011;67566;42.022;21.356;2023-02-16T06:23:51;61.33;;;31.40;;
78308;SDS011;67566;42.022;21.356;2023-02-16T06:26:16;64.35;;;36.65;;
78308;SDS011;67566;42.022;21.356;2023-02-16T06:28:42;71.72;;;40.72;;
78308;SDS011;67566;42.022;21.356;2023-02-16T06:31:07;68.65;;;38.67;;
78308;SDS011;67566;42.022;21.356;2023-02-16T06:33:33;60.90;;;36.08;;
78308;SDS011;67566;42.022;21.356;2023-02-16T06:35:58;75.40;;;40.03;;
78308;SDS011;67566;42.022;21.356;2023-02-16T06:38:24;75.80;;;43.25;;
78308;SDS011;67566;42.022;21.356;2023-02-16T06:40:52;67.32;;;38.85;;
78308;SDS011;67566;42.022;21.356;2023-02-16T06:43:19;53.13;;;30.98;;
78308;SDS011;67566;42.022;21.356;2023-02-16T06:45:45;84.65;;;46.53;;
78308;SDS011;67566;42.022;21.356;2023-02-16T06:48:11;70.53;;;39.78;;
78308;SDS011;67566;42.022;21.356;2023-02-16T06:50:37;60.13;;;34.67;;
78308;SDS011;67566;42.022;21.356;2023-02-16T06:53:02;71.18;;;41.45;;
78308;SDS011;67566;42.022;21.356;2023-02-16T06:55:28;66.97;;;39.53;;
78308;SDS011;67566;42.022;21.356;2023-02-16T06:57:58;84.05;;;52.10;;
78308;SDS011;67566;42.022;21.356;2023-02-16T07:00:24;71.82;;;46.50;;
78308;SDS011;67566;42.022;21.356;2023-02-16T07:02:49;108.32;;;59.35;;
78308;SDS011;67566;42.022;21.356;2023-02-16T07:05:16;55.25;;;37.42;;
78308;SDS011;67566;42.022;21.356;2023-02-16T07:07:42;59.88;;;38.85;;
78308;SDS011;67566;42.022;21.356;2023-02-16T07:10:07;49.50;;;34.05;;
78308;SDS011;67566;42.022;21.356;2023-02-16T07:12:33;52.97;;;34.15;;
78308;SDS011;67566;42.022;21.356;2023-02-16T07:14:59;50.72;;;37.13;;
78308;SDS011;67566;42.022;21.356;2023-02-16T07:17:24;47.90;;;35.60;;
78308;SDS011;67566;42.022;21.356;2023-02-16T07:19:50;52.42;;;40.03;;
78308;SDS011;67566;42.022;21.356;2023-02-16T07:22:15;52.50;;;39.60;;
78308;SDS011;67566;42.022;21.356;2023-02-16T07:24:41;51.90;;;36.50;;
78308;SDS011;67566;42.022;21.356;2023-02-16T07:27:07;49.22;;;38.65;;
78308;SDS011;67566;42.022;21.356;2023-02-16T07:29:33;43.63;;;34.83;;
78308;SDS011;67566;42.022;21.356;2023-02-16T07:31:59;47.22;;;36.83;;
78308;SDS011;67566;42.022;21.356;2023-02-16T07:34:26;48.95;;;37.85;;
78308;SDS011;67566;42.022;21.356;2023-02-16T07:36:51;54.10;;;42.72;;
78308;SDS011;67566;42.022;21.356;2023-02-16T07:39:16;54.05;;;42.75;;
78308;SDS011;67566;42.022;21.356;2023-02-16T07:41:42;56.95;;;43.88;;
78308;SDS011;67566;42.022;21.356;2023-02-16T07:44:07;60.72;;;48.05;;
78308;SDS011;67566;42.022;21.356;2023-02-16T07:46:33;48.72;;;40.08;;
78308;SDS011;67566;42.022;21.356;2023-02-16T07:48:58;47.80;;;39.47;;
78308;SDS011;67566;42.022;21.356;2023-02-16T07:51:25;45.90;;;38.05;;
78308;SDS011;67566;42.022;21.356;2023-02-16T07:53:52;42.58;;;35.47;;
78308;SDS011;67566;42.022;21.356;2023-02-16T07:56:25;45.83;;;36.40;;
78308;SDS011;67566;42.022;21.356;2023-02-16T07:58:53;51.80;;;43.33;;
78308;SDS011;67566;42.022;21.356;2023-02-16T08:01:19;55.25;;;46.63;;
78308;SDS011;67566;42.022;21.356;2023-02-16T08:03:46;50.05;;;44.20;;
78308;SDS011;67566;42.022;21.356;2023-02-16T08:06:12;50.70;;;42.58;;
78308;SDS011;67566;42.022;21.356;2023-02-16T08:08:37;46.65;;;40.50;;
78308;SDS011;67566;42.022;21.356;2023-02-16T08:11:07;48.65;;;43.13;;
78308;SDS011;67566;42.022;21.356;2023-02-16T08:13:37;52.45;;;42.85;;
78308;SDS011;67566;42.022;21.356;2023-02-16T08:16:06;49.50;;;42.85;;
78308;SDS011;67566;42.022;21.356;2023-02-16T08:18:36;45.17;;;37.47;;
78308;SDS011;67566;42.022;21.356;2023-02-16T08:21:12;55.05;;;45.47;;
78308;SDS011;67566;42.022;21.356;2023-02-16T08:23:42;33.90;;;29.23;;
78308;SDS011;67566;42.022;21.356;2023-02-16T08:26:14;37.05;;;33.03;;
78308;SDS011;67566;42.022;21.356;2023-02-16T08:28:44;36.22;;;32.30;;
78308;SDS011;67566;42.022;21.356;2023-02-16T08:31:14;46.25;;;39.65;;
78308;SDS011;67566;42.022;21.356;2023-02-16T08:33:43;34.47;;;30.70;;
78308;SDS011;67566;42.022;21.356;2023-02-16T08:36:19;39.92;;;33.78;;
78308;SDS011;67566;42.022;21.356;2023-02-16T08:38:49;41.58;;;34.22;;
78308;SDS011;67566;42.022;21.356;2023-02-16T08:41:16;34.50;;;28.35;;
78308;SDS011;67566;42.022;21.356;2023-02-16T08:43:43;31.13;;;27.05;;
78308;SDS011;67566;42.022;21.356;2023-02-16T08:46:10;31.33;;;26.60;;
78308;SDS011;67566;42.022;21.356;2023-02-16T08:48:35;38.40;;;30.48;;
78308;SDS011;67566;42.022;21.356;2023-02-16T08:51:02;30.38;;;26.00;;
78308;SDS011;67566;42.022;21.356;2023-02-16T08:53:30;25.83;;;22.20;;
78308;SDS011;67566;42.022;21.356;2023-02-16T08:58:27;30.40;;;26.95;;
78308;SDS011;67566;42.022;21.356;2023-02-16T09:00:53;28.02;;;25.02;;
78308;SDS011;67566;42.022;21.356;2023-02-16T09:03:18;27.38;;;24.48;;
78308;SDS011;67566;42.022;21.356;2023-02-16T09:05:44;28.15;;;25.38;;
78308;SDS011;67566;42.022;21.356;2023-02-16T09:08:10;28.63;;;25.75;;
78308;SDS011;67566;42.022;21.356;2023-02-16T09:10:36;27.05;;;24.23;;
78308;SDS011;67566;42.022;21.356;2023-02-16T09:13:02;31.27;;;27.88;;
78308;SDS011;67566;42.022;21.356;2023-02-16T09:15:29;37.63;;;33.80;;
78308;SDS011;67566;42.022;21.356;2023-02-16T09:17:55;35.42;;;32.03;;
78308;SDS011;67566;42.022;21.356;2023-02-16T09:20:21;35.65;;;31.95;;
78308;SDS011;67566;42.022;21.356;2023-02-16T09:22:47;35.97;;;32.25;;
78308;SDS011;67566;42.022;21.356;2023-02-16T09:25:13;39.65;;;35.65;;
78308;SDS011;67566;42.022;21.356;2023-02-16T09:27:39;41.75;;;37.60;;
78308;SDS011;67566;42.022;21.356;2023-02-16T09:30:05;36.50;;;32.85;;
78308;SDS011;67566;42.022;21.356;2023-02-16T09:32:33;39.35;;;35.30;;
78308;SDS011;67566;42.022;21.356;2023-02-16T09:34:59;36.72;;;32.95;;
78308;SDS011;67566;42.022;21.356;2023-02-16T09:37:24;34.15;;;30.85;;
78308;SDS011;67566;42.022;21.356;2023-02-16T09:39:50;34.42;;;31.00;;
78308;SDS011;67566;42.022;21.356;2023-02-16T09:42:30;34.45;;;30.77;;
78308;SDS011;67566;42.022;21.356;2023-02-16T09:45:12;36.60;;;33.13;;
78308;SDS011;67566;42.022;21.356;2023-02-16T09:47:43;35.10;;;31.50;;
78308;SDS011;67566;42.022;21.356;2023-02-16T09:52:43;37.33;;;33.67;;
78308;SDS011;67566;42.022;21.356;2023-02-16T09:55:14;35.58;;;32.05;;
78308;SDS011;67566;42.022;21.356;2023-02-16T09:57:58;37.92;;;34.03;;
78308;SDS011;67566;42.022;21.356;2023-02-16T10:08:50;43.85;;;38.45;;
78308;SDS011;67566;42.022;21.356;2023-02-16T10:11:21;44.30;;;39.97;;
78308;SDS011;67566;42.022;21.356;2023-02-16T10:17:10;49.30;;;44.13;;
78308;SDS011;67566;42.022;21.356;2023-02-16T10:19:56;49.17;;;44.47;;
78308;SDS011;67566;42.022;21.356;2023-02-16T10:22:37;51.90;;;46.70;;
78308;SDS011;67566;42.022;21.356;2023-02-16T10:30:45;46.83;;;42.28;;
78308;SDS011;67566;42.022;21.356;2023-02-16T10:33:16;47.00;;;42.00;;
78308;SDS011;67566;42.022;21.356;2023-02-16T10:35:51;52.53;;;47.08;;
78308;SDS011;67566;42.022;21.356;2023-02-16T10:38:39;50.95;;;45.78;;
78308;SDS011;67566;42.022;21.356;2023-02-16T10:43:49;44.75;;;40.13;;
78308;SDS011;67566;42.022;21.356;2023-02-16T10:46:24;43.17;;;39.03;;
78308;SDS011;67566;42.022;21.356;2023-02-16T10:48:54;44.05;;;39.65;;
78308;SDS011;67566;42.022;21.356;2023-02-16T10:51:21;46.67;;;39.70;;
78308;SDS011;67566;42.022;21.356;2023-02-16T10:53:53;46.58;;;41.50;;
78308;SDS011;67566;42.022;21.356;2023-02-16T10:59:37;47.33;;;42.20;;
78308;SDS011;67566;42.022;21.356;2023-02-16T11:02:27;44.42;;;38.90;;
78308;SDS011;67566;42.022;21.356;2023-02-16T11:05:27;46.35;;;40.92;;
78308;SDS011;67566;42.022;21.356;2023-02-16T11:07:51;46.25;;;41.30;;
78308;SDS011;67566;42.022;21.356;2023-02-16T11:10:19;49.80;;;39.53;;
78308;SDS011;67566;42.022;21.356;2023-02-16T11:12:52;41.03;;;36.63;;
78308;SDS011;67566;42.022;21.356;2023-02-16T11:15:22;46.67;;;41.53;;
78308;SDS011;67566;42.022;21.356;2023-02-16T11:17:59;50.95;;;41.65;;
78308;SDS011;67566;42.022;21.356;2023-02-16T11:25:56;43.17;;;37.15;;
78308;SDS011;67566;42.022;21.356;2023-02-16T11:28:48;45.88;;;36.97;;
78308;SDS011;67566;42.022;21.356;2023-02-16T11:31:35;39.88;;;30.63;;
78308;SDS011;67566;42.022;21.356;2023-02-16T11:34:03;35.60;;;29.67;;
78308;SDS011;67566;42.022;21.356;2023-02-16T11:36:40;46.92;;;34.70;;
78308;SDS011;67566;42.022;21.356;2023-02-16T11:39:21;41.17;;;33.33;;
78308;SDS011;67566;42.022;21.356;2023-02-16T11:42:08;50.30;;;38.97;;
78308;SDS011;67566;42.022;21.356;2023-02-16T11:44:47;54.65;;;37.50;;
78308;SDS011;67566;42.022;21.356;2023-02-16T11:50:22;60.03;;;41.47;;
78308;SDS011;67566;42.022;21.356;2023-02-16T11:52:54;64.60;;;43.33;;
78308;SDS011;67566;42.022;21.356;2023-02-16T11:57:51;48.78;;;34.00;;
78308;SDS011;67566;42.022;21.356;2023-02-16T12:00:18;54.78;;;37.65;;
78308;SDS011;67566;42.022;21.356;2023-02-16T12:11:20;43.45;;;30.27;;
78308;SDS011;67566;42.022;21.356;2023-02-16T12:14:13;42.30;;;28.05;;
78308;SDS011;67566;42.022;21.356;2023-02-16T12:22:46;44.80;;;30.90;;
78308;SDS011;67566;42.022;21.356;2023-02-16T12:25:41;57.67;;;35.72;;
78308;SDS011;67566;42.022;21.356;2023-02-16T12:39:23;45.35;;;28.45;;
78308;SDS011;67566;42.022;21.356;2023-02-16T12:42:01;42.83;;;25.67;;
78308;SDS011;67566;42.022;21.356;2023-02-16T12:44:34;35.85;;;21.27;;
78308;SDS011;67566;42.022;21.356;2023-02-16T12:47:07;35.28;;;21.05;;
78308;SDS011;67566;42.022;21.356;2023-02-16T12:52:26;37.30;;;24.77;;
78308;SDS011;67566;42.022;21.356;2023-02-16T12:55:18;37.60;;;22.58;;
78308;SDS011;67566;42.022;21.356;2023-02-16T13:00:43;33.85;;;21.67;;
78308;SDS011;67566;42.022;21.356;2023-02-16T13:08:47;31.15;;;20.88;;
78308;SDS011;67566;42.022;21.356;2023-02-16T13:11:27;33.63;;;20.73;;
78308;SDS011;67566;42.022;21.356;2023-02-16T13:14:00;27.48;;;17.83;;
78308;SDS011;67566;42.022;21.356;2023-02-16T13:16:40;29.70;;;20.20;;
78308;SDS011;67566;42.022;21.356;2023-02-16T13:19:10;35.70;;;22.35;;
78308;SDS011;67566;42.022;21.356;2023-02-16T13:44:09;26.52;;;17.20;;
78308;SDS011;67566;42.022;21.356;2023-02-16T13:46:41;30.08;;;16.55;;
78308;SDS011;67566;42.022;21.356;2023-02-16T13:49:31;25.00;;;15.10;;
78308;SDS011;67566;42.022;21.356;2023-02-16T13:52:07;30.63;;;16.40;;
78308;SDS011;67566;42.022;21.356;2023-02-16T13:54:35;27.05;;;17.23;;
78308;SDS011;67566;42.022;21.356;2023-02-16T13:57:04;22.17;;;14.02;;
78308;SDS011;67566;42.022;21.356;2023-02-16T14:02:01;24.85;;;16.55;;
78308;SDS011;67566;42.022;21.356;2023-02-16T14:19:55;25.23;;;16.58;;
78308;SDS011;67566;42.022;21.356;2023-02-16T14:27:48;25.63;;;16.35;;
78308;SDS011;67566;42.022;21.356;2023-02-16T14:30:26;35.17;;;18.40;;
78308;SDS011;67566;42.022;21.356;2023-02-16T14:33:21;29.33;;;17.13;;
78308;SDS011;67566;42.022;21.356;2023-02-16T14:41:00;27.80;;;18.75;;
78308;SDS011;67566;42.022;21.356;2023-02-16T14:43:35;23.40;;;15.35;;
78308;SDS011;67566;42.022;21.356;2023-02-16T14:46:22;23.67;;;14.43;;
78308;SDS011;67566;42.022;21.356;2023-02-16T14:57:32;38.92;;;22.77;;
78308;SDS011;67566;42.022;21.356;2023-02-16T15:02:39;33.75;;;17.08;;
78308;SDS011;67566;42.022;21.356;2023-02-16T15:05:16;36.03;;;20.02;;
78308;SDS011;67566;42.022;21.356;2023-02-16T15:07:50;27.35;;;15.90;;
78308;SDS011;67566;42.022;21.356;2023-02-16T15:10:23;30.55;;;16.27;;
78308;SDS011;67566;42.022;21.356;2023-02-16T15:12:52;24.70;;;14.05;;
78308;SDS011;67566;42.022;21.356;2023-02-16T15:15:20;25.73;;;13.82;;
78308;SDS011;67566;42.022;21.356;2023-02-16T15:17:58;31.10;;;16.75;;
78308;SDS011;67566;42.022;21.356;2023-02-16T15:22:53;25.33;;;14.93;;
78308;SDS011;67566;42.022;21.356;2023-02-16T15:27:54;25.13;;;13.75;;
78308;SDS011;67566;42.022;21.356;2023-02-16T15:30:34;23.00;;;14.48;;
78308;SDS011;67566;42.022;21.356;2023-02-16T15:33:04;26.42;;;14.73;;
78308;SDS011;67566;42.022;21.356;2023-02-16T15:35:38;21.88;;;13.77;;
78308;SDS011;67566;42.022;21.356;2023-02-16T15:40:50;31.92;;;17.35;;
78308;SDS011;67566;42.022;21.356;2023-02-16T15:46:05;36.63;;;22.35;;
78308;SDS011;67566;42.022;21.356;2023-02-16T15:48:37;40.40;;;27.58;;
78308;SDS011;67566;42.022;21.356;2023-02-16T15:59:31;57.13;;;33.00;;
78308;SDS011;67566;42.022;21.356;2023-02-16T16:02:18;117.25;;;63.55;;
78308;SDS011;67566;42.022;21.356;2023-02-16T16:04:47;83.70;;;45.55;;
78308;SDS011;67566;42.022;21.356;2023-02-16T16:07:20;76.22;;;39.03;;
78308;SDS011;67566;42.022;21.356;2023-02-16T16:09:50;65.65;;;35.20;;
78308;SDS011;67566;42.022;21.356;2023-02-16T16:12:16;74.80;;;36.90;;
78308;SDS011;67566;42.022;21.356;2023-02-16T16:14:51;72.18;;;36.88;;
78308;SDS011;67566;42.022;21.356;2023-02-16T16:17:24;62.22;;;34.20;;
78308;SDS011;67566;42.022;21.356;2023-02-16T16:19:54;64.22;;;34.13;;
78308;SDS011;67566;42.022;21.356;2023-02-16T16:22:36;55.45;;;31.23;;
78308;SDS011;67566;42.022;21.356;2023-02-16T16:27:54;120.97;;;64.72;;
78308;SDS011;67566;42.022;21.356;2023-02-16T16:35:49;66.70;;;38.97;;
78308;SDS011;67566;42.022;21.356;2023-02-16T16:40:50;61.78;;;35.78;;
78308;SDS011;67566;42.022;21.356;2023-02-16T16:43:17;55.15;;;30.88;;
78308;SDS011;67566;42.022;21.356;2023-02-16T16:45:45;53.38;;;32.25;;
78308;SDS011;67566;42.022;21.356;2023-02-16T16:48:28;67.07;;;41.40;;
78308;SDS011;67566;42.022;21.356;2023-02-16T16:51:09;87.40;;;49.63;;
78308;SDS011;67566;42.022;21.356;2023-02-16T16:56:16;84.90;;;51.33;;
78308;SDS011;67566;42.022;21.356;2023-02-16T16:58:46;75.18;;;42.63;;
78308;SDS011;67566;42.022;21.356;2023-02-16T17:01:12;98.88;;;56.53;;
78308;SDS011;67566;42.022;21.356;2023-02-16T17:03:37;81.13;;;52.20;;
78308;SDS011;67566;42.022;21.356;2023-02-16T17:06:03;90.05;;;53.22;;
78308;SDS011;67566;42.022;21.356;2023-02-16T17:08:30;81.38;;;49.45;;
78308;SDS011;67566;42.022;21.356;2023-02-16T17:10:56;85.72;;;49.95;;
78308;SDS011;67566;42.022;21.356;2023-02-16T17:13:21;93.55;;;53.42;;
78308;SDS011;67566;42.022;21.356;2023-02-16T17:18:19;68.53;;;41.38;;
78308;SDS011;67566;42.022;21.356;2023-02-16T17:20:49;58.40;;;32.92;;
78308;SDS011;67566;42.022;21.356;2023-02-16T17:25:42;52.13;;;31.30;;
78308;SDS011;67566;42.022;21.356;2023-02-16T17:28:08;46.63;;;29.88;;
78308;SDS011;67566;42.022;21.356;2023-02-16T17:30:36;68.70;;;37.83;;
78308;SDS011;67566;42.022;21.356;2023-02-16T17:33:02;74.65;;;41.83;;
78308;SDS011;67566;42.022;21.356;2023-02-16T17:35:28;74.55;;;40.55;;
78308;SDS011;67566;42.022;21.356;2023-02-16T17:37:55;77.10;;;42.55;;
78308;SDS011;67566;42.022;21.356;2023-02-16T17:40:21;80.28;;;45.28;;
78308;SDS011;67566;42.022;21.356;2023-02-16T17:42:48;114.57;;;56.65;;
78308;SDS011;67566;42.022;21.356;2023-02-16T17:45:15;110.85;;;58.25;;
78308;SDS011;67566;42.022;21.356;2023-02-16T17:47:42;105.72;;;51.63;;
78308;SDS011;67566;42.022;21.356;2023-02-16T17:50:11;128.95;;;62.83;;
78308;SDS011;67566;42.022;21.356;2023-02-16T17:52:41;149.20;;;67.43;;
78308;SDS011;67566;42.022;21.356;2023-02-16T17:55:08;158.18;;;72.15;;
78308;SDS011;67566;42.022;21.356;2023-02-16T17:57:34;182.00;;;83.90;;
78308;SDS011;67566;42.022;21.356;2023-02-16T18:00:02;175.32;;;84.10;;
78308;SDS011;67566;42.022;21.356;2023-02-16T18:02:29;153.10;;;78.05;;
78308;SDS011;67566;42.022;21.356;2023-02-16T18:04:55;149.60;;;76.10;;
78308;SDS011;67566;42.022;21.356;2023-02-16T18:07:20;109.68;;;62.55;;
78308;SDS011;67566;42.022;21.356;2023-02-16T18:09:46;92.40;;;53.40;;
78308;SDS011;67566;42.022;21.356;2023-02-16T18:12:12;88.78;;;48.58;;